Country
Station

 

Weather  for  Elista  -  Russian Federation    Russian Federation

  
-3 °C (27 °F)
    
 
 

Current METAR for Elista is :

URWI 121430Z 09003MPS 2400 BR OVC001 M03/M03 Q1021 R09/390050 NOSIG RMK QBB050 OBST OBSC

 

This is a report for Elista - Russian Federation.
 
The report was made 30 minutes ago, at 14:30 UTC .
The wind was blowing at a speed of 3 meters per second (6.7 miles per hour) from east (090°).
 
The temperature was -3 °C (27 °F), with a dew-point at -3 °C (27 °F).
The temperature felt like -7 °C (20 °F).
 
The atmospheric pressure was 1021 hPa (30.15 inHg).
The relative humidity was 100.0%.
 
The sky was overcast from a height of 30 meter (100 feet)
 
The overall visibility was 2400 meter (7874 feet).
 
Currently mist.

 
 
 
 

Country :   A   B   C   D   E   F   G   H   I   J   K   L   M   N   O   P   Q   R   S   T   U   V   W   Y   Z

 

Site Info  |  Disclaimer  |  Credits  |  Privacy
Contact us  |  Add to favorites
© 2013-2019 METARs - All rights reserved